Time;durP1;ratioP1;P1;durP2;ratioP2;P2;SDS_P1;SDS_P2;PMS_P1;PMS_P2;Temp;Humidity;BMP_temperature;BMP_pressure;BME280_temperature;BME280_humidity;BME280_pressure;Samples;Min_cycle;Max_cycle;Signal;HPM_P1;HPM_P2
2021/10/11 00:01:56;;;;;;;10.63;6.90;;;8.50;54.80;;;;;;5062579;28;20206;-69
2021/10/11 00:04:23;;;;;;;10.63;7.43;;;8.40;54.80;;;;;;5058701;28;20234;-70
2021/10/11 00:06:50;;;;;;;13.00;8.00;;;8.30;54.70;;;;;;5061422;28;20672;-69
2021/10/11 00:09:17;;;;;;;11.40;6.70;;;8.30;55.40;;;;;;5059624;28;20305;-70
2021/10/11 00:11:43;;;;;;;11.10;6.90;;;8.30;55.20;;;;;;5053665;28;20267;-69
2021/10/11 00:14:11;;;;;;;13.00;7.73;;;8.30;55.30;;;;;;5053446;28;20209;-69
2021/10/11 00:16:38;;;;;;;12.93;7.20;;;8.30;55.40;;;;;;5064239;28;20298;-71
2021/10/11 00:19:06;;;;;;;13.77;7.83;;;8.30;55.50;;;;;;5056071;28;20308;-69
2021/10/11 00:21:33;;;;;;;11.77;6.60;;;8.30;55.50;;;;;;5052851;28;20643;-70
2021/10/11 00:24:00;;;;;;;10.67;7.43;;;8.30;55.60;;;;;;5062433;28;20213;-70
2021/10/11 00:26:27;;;;;;;15.10;8.00;;;8.20;55.60;;;;;;5067618;28;20300;-70
2021/10/11 00:28:54;;;;;;;10.40;6.70;;;8.20;55.70;;;;;;5057249;28;20202;-69
2021/10/11 00:31:20;;;;;;;10.67;7.23;;;8.20;55.80;;;;;;5065714;28;20544;-68
2021/10/11 00:33:47;;;;;;;15.60;8.17;;;8.20;55.90;;;;;;5054061;28;20216;-69
2021/10/11 00:36:15;;;;;;;11.93;7.70;;;8.20;55.90;;;;;;5053372;28;20231;-69
2021/10/11 00:38:42;;;;;;;15.30;7.77;;;8.20;55.90;;;;;;5056166;28;20273;-69
2021/10/11 00:41:09;;;;;;;13.17;7.40;;;8.20;56.00;;;;;;5063820;28;20206;-69
2021/10/11 00:43:39;;;;;;;13.13;8.33;;;8.20;56.10;;;;;;5062724;28;20695;-68
2021/10/11 00:46:06;;;;;;;10.53;6.90;;;8.20;56.70;;;;;;5053814;28;20234;-69
2021/10/11 00:48:33;;;;;;;12.33;7.50;;;8.20;56.20;;;;;;5063269;28;20214;-68
2021/10/11 00:51:00;;;;;;;11.27;7.73;;;8.10;56.10;;;;;;5055092;28;20215;-69
2021/10/11 00:53:28;;;;;;;12.07;7.50;;;8.10;56.10;;;;;;5063117;28;20669;-69
2021/10/11 00:55:55;;;;;;;12.53;7.70;;;8.10;56.40;;;;;;5064568;28;20235;-68
2021/10/11 00:58:22;;;;;;;12.47;8.07;;;8.10;56.50;;;;;;5052639;28;20206;-69
2021/10/11 01:00:49;;;;;;;12.00;7.60;;;8.10;56.60;;;;;;5053336;28;20245;-69
2021/10/11 01:03:16;;;;;;;10.03;7.03;;;8.10;56.60;;;;;;5070275;28;20211;-70
2021/10/11 01:05:44;;;;;;;13.93;7.63;;;8.10;56.60;;;;;;5056639;28;20223;-70
2021/10/11 01:08:11;;;;;;;13.77;7.43;;;8.00;56.50;;;;;;5060152;28;20216;-70
2021/10/11 01:10:39;;;;;;;13.83;7.87;;;8.00;56.50;;;;;;5056618;28;20293;-69
2021/10/11 01:13:06;;;;;;;15.87;8.13;;;8.00;56.70;;;;;;5056193;28;20206;-69
2021/10/11 01:15:33;;;;;;;12.80;7.83;;;8.00;56.90;;;;;;5061851;28;20213;-69
2021/10/11 01:18:00;;;;;;;14.97;7.73;;;8.00;56.90;;;;;;5063140;28;20203;-68
2021/10/11 01:20:28;;;;;;;13.50;8.40;;;6.90;56.10;;;;;;5056797;28;20225;-69
2021/10/11 01:22:55;;;;;;;12.70;7.73;;;7.90;57.00;;;;;;5056234;28;20209;-69
2021/10/11 01:25:22;;;;;;;13.43;8.03;;;7.90;57.10;;;;;;5057410;28;20204;-70
2021/10/11 01:27:49;;;;;;;16.13;8.00;;;7.90;57.10;;;;;;5066738;28;20256;-70
2021/10/11 01:30:19;;;;;;;16.63;8.87;;;7.90;57.10;;;;;;5056165;28;20206;-68
2021/10/11 01:32:46;;;;;;;15.43;7.83;;;7.90;57.10;;;;;;5058974;28;20213;-68
2021/10/11 01:35:15;;;;;;;12.33;7.63;;;7.90;57.10;;;;;;5058248;28;20210;-69
2021/10/11 01:37:43;;;;;;;15.27;8.17;;;7.90;57.10;;;;;;5066960;28;20561;-69
2021/10/11 01:40:11;;;;;;;17.17;8.67;;;7.90;57.30;;;;;;5055391;28;20229;-69
2021/10/11 01:42:38;;;;;;;16.37;9.53;;;7.90;57.30;;;;;;5055010;28;20205;-68
2021/10/11 01:45:07;;;;;;;12.90;8.13;;;7.90;57.40;;;;;;5056654;28;20205;-68
2021/10/11 01:47:33;;;;;;;11.90;7.77;;;7.80;57.40;;;;;;5061164;28;20206;-67
2021/10/11 01:50:00;;;;;;;15.10;8.20;;;7.80;57.60;;;;;;5060351;28;20660;-68
2021/10/11 01:52:27;;;;;;;16.90;8.20;;;7.80;57.60;;;;;;5071028;28;20212;-68
2021/10/11 01:54:55;;;;;;;16.10;8.63;;;7.80;57.80;;;;;;5068053;28;20206;-69
2021/10/11 01:57:22;;;;;;;14.80;9.17;;;7.80;57.80;;;;;;5059377;28;20201;-69
2021/10/11 01:59:49;;;;;;;14.53;8.73;;;7.70;57.80;;;;;;5056333;28;20226;-69
2021/10/11 02:02:16;;;;;;;15.30;8.90;;;7.70;57.80;;;;;;5061060;28;20201;-69
2021/10/11 02:04:43;;;;;;;14.03;8.70;;;7.70;57.90;;;;;;5056311;28;20425;-70
2021/10/11 02:07:09;;;;;;;15.73;8.67;;;7.80;58.00;;;;;;5057355;28;20266;-69
2021/10/11 02:09:36;;;;;;;13.80;8.13;;;7.70;58.00;;;;;;5061202;28;20203;-68
2021/10/11 02:12:05;;;;;;;15.07;8.93;;;7.70;58.20;;;;;;5053677;28;20218;-68
2021/10/11 02:14:32;;;;;;;15.53;9.27;;;7.70;58.20;;;;;;5062878;28;20205;-69
2021/10/11 02:16:58;;;;;;;16.43;9.43;;;7.70;58.10;;;;;;5057002;28;20193;-69
2021/10/11 02:19:25;;;;;;;16.33;9.17;;;7.80;58.30;;;;;;5074168;28;20222;-68
2021/10/11 02:21:52;;;;;;;16.97;8.77;;;7.70;58.30;;;;;;5068878;28;20205;-69
2021/10/11 02:24:19;;;;;;;20.97;9.87;;;7.70;58.40;;;;;;5054789;28;20209;-70
2021/10/11 02:26:46;;;;;;;16.67;8.53;;;7.70;58.30;;;;;;5059241;28;20233;-68
2021/10/11 02:29:14;;;;;;;14.20;8.50;;;7.70;58.30;;;;;;5054427;28;20197;-68
2021/10/11 02:31:41;;;;;;;15.67;9.27;;;7.70;58.40;;;;;;5068554;28;20243;-68
2021/10/11 02:34:08;;;;;;;21.37;8.93;;;7.60;58.50;;;;;;5054232;28;20202;-69
2021/10/11 02:36:35;;;;;;;15.53;9.33;;;7.60;58.50;;;;;;5066809;28;20229;-69
2021/10/11 02:39:02;;;;;;;19.47;9.50;;;7.60;58.60;;;;;;5059115;28;20202;-68
2021/10/11 02:41:29;;;;;;;15.50;9.07;;;7.50;58.80;;;;;;5061646;28;20701;-68
2021/10/11 02:43:55;;;;;;;15.20;8.43;;;7.60;59.50;;;;;;5068506;28;20202;-68
2021/10/11 02:46:24;;;;;;;14.57;9.33;;;7.50;59.00;;;;;;5053704;28;20202;-68
2021/10/11 02:48:51;;;;;;;14.63;9.37;;;7.50;59.00;;;;;;5054027;28;20206;-69
2021/10/11 02:51:18;;;;;;;17.00;9.30;;;7.50;59.10;;;;;;5059468;28;20200;-69
2021/10/11 02:53:49;;;;;;;14.93;8.87;;;7.40;59.10;;;;;;5060479;28;20210;-69
2021/10/11 02:56:16;;;;;;;15.83;9.13;;;7.40;59.20;;;;;;5064386;28;20197;-68
2021/10/11 02:58:43;;;;;;;18.13;9.40;;;7.50;59.40;;;;;;5067536;28;20213;-69
2021/10/11 03:01:09;;;;;;;15.00;8.90;;;7.50;59.60;;;;;;5057581;28;20222;-69
2021/10/11 03:03:38;;;;;;;15.80;9.37;;;7.50;59.60;;;;;;5053034;28;20657;-68
2021/10/11 03:06:05;;;;;;;18.13;9.00;;;7.60;59.50;;;;;;5053390;28;20216;-69
2021/10/11 03:08:32;;;;;;;15.07;8.90;;;7.60;59.40;;;;;;5066597;28;20210;-69
2021/10/11 03:10:59;;;;;;;15.73;9.73;;;7.60;59.40;;;;;;5055178;28;20200;-68
2021/10/11 03:13:26;;;;;;;16.90;11.03;;;7.70;59.40;;;;;;5064598;28;20238;-70
2021/10/11 03:15:53;;;;;;;14.37;9.50;;;7.60;59.30;;;;;;5060697;28;20205;-68
2021/10/11 03:18:20;;;;;;;16.70;9.17;;;7.60;59.50;;;;;;5057564;28;20539;-69
2021/10/11 03:20:49;;;;;;;14.37;9.97;;;7.70;59.70;;;;;;5055917;28;20577;-68
2021/10/11 03:23:16;;;;;;;15.27;9.17;;;7.70;59.70;;;;;;5067469;28;20211;-68
2021/10/11 03:25:42;;;;;;;16.13;9.27;;;7.70;60.00;;;;;;5057950;28;20198;-69
2021/10/11 03:28:09;;;;;;;16.37;9.00;;;7.70;59.80;;;;;;5058694;28;20242;-69
2021/10/11 03:30:36;;;;;;;18.07;9.53;;;7.70;59.70;;;;;;5055167;28;20206;-68
2021/10/11 03:33:03;;;;;;;16.20;9.50;;;7.70;59.50;;;;;;5060260;28;20290;-69
2021/10/11 03:35:30;;;;;;;15.53;9.83;;;7.70;59.60;;;;;;5052843;28;20213;-68
2021/10/11 03:37:58;;;;;;;16.73;9.47;;;7.70;59.70;;;;;;5058003;28;20270;-67
2021/10/11 03:40:25;;;;;;;21.30;10.33;;;7.60;59.60;;;;;;5069949;28;20667;-69
2021/10/11 03:42:52;;;;;;;18.70;10.80;;;7.60;59.60;;;;;;5063068;28;20220;-69
2021/10/11 03:45:19;;;;;;;17.20;10.53;;;7.60;59.60;;;;;;5066229;28;20570;-69
2021/10/11 03:47:45;;;;;;;15.37;10.57;;;7.50;59.60;;;;;;5053086;28;20651;-69
2021/10/11 03:50:12;;;;;;;19.80;10.43;;;7.50;59.80;;;;;;5052681;28;20850;-69
2021/10/11 03:52:39;;;;;;;21.07;10.07;;;7.50;59.90;;;;;;5065795;28;20215;-69
2021/10/11 03:55:08;;;;;;;16.83;10.20;;;7.50;60.10;;;;;;5053452;28;20210;-68
2021/10/11 03:57:35;;;;;;;17.40;10.43;;;7.40;60.20;;;;;;5067111;28;20568;-69
2021/10/11 04:00:03;;;;;;;16.53;10.03;;;7.40;60.20;;;;;;5054757;28;20221;-69
2021/10/11 04:02:30;;;;;;;15.07;9.33;;;7.40;60.60;;;;;;5060446;28;20241;-68
2021/10/11 04:04:57;;;;;;;19.50;10.57;;;7.40;60.70;;;;;;5052937;28;20245;-68
2021/10/11 04:07:24;;;;;;;17.30;10.70;;;7.40;60.80;;;;;;5053116;28;20252;-68
2021/10/11 04:09:51;;;;;;;17.30;10.60;;;7.40;60.80;;;;;;5056148;28;20537;-68
2021/10/11 04:12:20;;;;;;;19.03;10.57;;;7.40;61.00;;;;;;5062030;28;20206;-69
2021/10/11 04:14:47;;;;;;;16.10;10.07;;;7.40;60.90;;;;;;5052064;28;20206;-69
2021/10/11 04:17:14;;;;;;;17.23;10.17;;;7.40;60.80;;;;;;5056532;28;20217;-69
2021/10/11 04:19:42;;;;;;;16.10;10.10;;;7.30;60.80;;;;;;5057421;28;20279;-70
2021/10/11 04:22:08;;;;;;;19.60;10.20;;;7.30;61.00;;;;;;5058689;28;20201;-69
2021/10/11 04:24:35;;;;;;;18.03;10.77;;;7.20;61.00;;;;;;5058297;28;20210;-69
2021/10/11 04:27:02;;;;;;;20.20;11.10;;;7.30;61.20;;;;;;5052452;28;20237;-69
2021/10/11 04:29:30;;;;;;;14.63;10.10;;;7.30;61.10;;;;;;5053572;28;20210;-70
2021/10/11 04:31:57;;;;;;;14.87;10.20;;;7.20;61.20;;;;;;5052222;28;20205;-69
2021/10/11 04:34:24;;;;;;;17.83;10.50;;;7.30;61.30;;;;;;5061681;28;20217;-69
2021/10/11 04:36:51;;;;;;;16.87;10.57;;;7.20;61.20;;;;;;5069365;28;20587;-70
2021/10/11 04:39:18;;;;;;;15.33;10.83;;;7.20;61.30;;;;;;5056332;28;20716;-71
2021/10/11 04:41:45;;;;;;;15.40;10.10;;;7.20;61.40;;;;;;5051681;28;20233;-70
2021/10/11 04:44:12;;;;;;;15.77;10.57;;;7.20;61.50;;;;;;5061684;28;20212;-70
2021/10/11 04:46:40;;;;;;;18.33;10.83;;;7.20;61.70;;;;;;5062244;28;20206;-69
2021/10/11 04:49:07;;;;;;;16.40;10.00;;;7.30;61.90;;;;;;5055412;28;20202;-69
2021/10/11 04:51:34;;;;;;;20.37;12.23;;;7.20;61.90;;;;;;5059700;28;20284;-70
2021/10/11 04:54:01;;;;;;;19.60;10.93;;;7.20;62.20;;;;;;5059239;28;20216;-69
2021/10/11 04:56:28;;;;;;;20.67;11.70;;;7.10;62.40;;;;;;5060843;28;20220;-72
2021/10/11 04:58:55;;;;;;;20.43;11.27;;;7.20;62.60;;;;;;5061297;28;20205;-71
2021/10/11 05:01:21;;;;;;;20.40;11.33;;;7.20;63.40;;;;;;5054242;28;20596;-69
2021/10/11 05:03:50;;;;;;;21.07;11.47;;;7.20;62.60;;;;;;5052968;28;20295;-69
2021/10/11 05:06:16;;;;;;;19.00;12.00;;;7.20;62.70;;;;;;5060350;28;20205;-71
2021/10/11 05:08:43;;;;;;;20.40;10.87;;;7.20;62.60;;;;;;5052442;28;20202;-69
2021/10/11 05:11:11;;;;;;;20.60;11.80;;;7.10;62.50;;;;;;5052783;28;20296;-69
2021/10/11 05:13:37;;;;;;;20.90;11.70;;;7.10;63.10;;;;;;5065422;28;20623;-68
2021/10/11 05:16:10;;;;;;;21.00;11.00;;;7.10;63.50;;;;;;5055302;28;20214;-70
2021/10/11 05:18:37;;;;;;;18.40;10.60;;;7.10;63.50;;;;;;5056057;28;20197;-69
2021/10/11 05:21:06;;;;;;;18.93;12.03;;;7.10;63.40;;;;;;5052295;28;20705;-70
2021/10/11 05:23:33;;;;;;;21.87;11.67;;;7.10;63.50;;;;;;5052479;28;20294;-71
2021/10/11 05:26:00;;;;;;;19.47;10.87;;;7.00;63.50;;;;;;5055881;28;20643;-70
2021/10/11 05:28:26;;;;;;;22.67;11.47;;;7.00;63.70;;;;;;5053184;28;20237;-72
2021/10/11 05:30:54;;;;;;;21.90;11.23;;;6.90;63.60;;;;;;5064099;28;20244;-70
2021/10/11 05:33:22;;;;;;;19.63;10.83;;;6.90;63.70;;;;;;5067001;28;20229;-70
2021/10/11 05:35:52;;;;;;;17.97;10.70;;;7.30;64.10;;;;;;5062721;28;20315;-70
2021/10/11 05:38:20;;;;;;;20.00;10.80;;;7.00;64.20;;;;;;5064800;28;20210;-70
2021/10/11 05:40:47;;;;;;;16.47;10.47;;;7.10;64.40;;;;;;5054580;28;20226;-69
2021/10/11 05:43:14;;;;;;;19.60;11.90;;;7.20;64.70;;;;;;5059002;28;20301;-73
2021/10/11 05:45:41;;;;;;;22.90;11.73;;;7.40;64.50;;;;;;5055184;28;20317;-70
2021/10/11 05:48:07;;;;;;;18.43;11.90;;;7.60;64.00;;;;;;5054321;28;20201;-72
2021/10/11 05:50:34;;;;;;;21.17;12.43;;;7.60;63.70;;;;;;5071333;28;20212;-73
2021/10/11 05:53:01;;;;;;;21.17;11.70;;;7.60;63.40;;;;;;5069565;28;20212;-71
2021/10/11 05:55:30;;;;;;;20.50;10.80;;;7.70;63.10;;;;;;5062567;28;20201;-69
2021/10/11 05:57:57;;;;;;;21.00;12.20;;;7.70;63.10;;;;;;5057788;28;20210;-70
2021/10/11 06:00:24;;;;;;;21.80;12.23;;;7.70;63.10;;;;;;5065005;28;20213;-71
2021/10/11 06:02:51;;;;;;;19.83;12.43;;;7.80;63.20;;;;;;5059437;28;20224;-72
2021/10/11 06:05:18;;;;;;;16.77;11.03;;;7.80;63.20;;;;;;5062138;28;20236;-72
2021/10/11 06:07:45;;;;;;;23.40;12.83;;;7.90;64.00;;;;;;5060148;28;20214;-71
2021/10/11 06:10:12;;;;;;;20.80;12.63;;;7.90;62.80;;;;;;5067847;28;20206;-71
2021/10/11 06:12:42;;;;;;;19.83;11.80;;;8.00;62.70;;;;;;5055036;28;20205;-71
2021/10/11 06:15:10;;;;;;;17.07;11.13;;;8.00;62.60;;;;;;5060317;28;20646;-71
2021/10/11 06:17:37;;;;;;;18.97;11.27;;;8.10;62.50;;;;;;5076051;28;20245;-71
2021/10/11 06:20:04;;;;;;;20.20;11.73;;;8.20;62.50;;;;;;5058115;28;20311;-73
2021/10/11 06:22:31;;;;;;;19.20;11.57;;;8.30;62.50;;;;;;5064720;28;20320;-72
2021/10/11 06:24:58;;;;;;;23.13;11.67;;;8.50;62.20;;;;;;5055726;28;20249;-71
2021/10/11 06:27:27;;;;;;;19.53;11.70;;;8.60;61.70;;;;;;5064042;28;20458;-71
2021/10/11 06:29:55;;;;;;;24.10;12.40;;;8.70;61.50;;;;;;5062523;28;20205;-72
2021/10/11 06:32:22;;;;;;;20.73;12.20;;;8.80;60.80;;;;;;5054966;28;20198;-71
2021/10/11 06:34:49;;;;;;;25.30;13.07;;;8.90;60.20;;;;;;5055129;28;20593;-70
2021/10/11 06:37:16;;;;;;;28.73;11.37;;;9.00;60.00;;;;;;5067001;28;20225;-72
2021/10/11 06:39:43;;;;;;;17.10;11.47;;;9.10;59.90;;;;;;5072764;28;20543;-72
2021/10/11 06:42:10;;;;;;;23.13;12.17;;;9.00;59.40;;;;;;5075233;28;20275;-72
2021/10/11 06:44:37;;;;;;;22.00;12.47;;;9.00;59.30;;;;;;5072301;28;20209;-72
2021/10/11 06:47:05;;;;;;;20.93;11.63;;;9.00;59.30;;;;;;5069702;28;20204;-73
2021/10/11 06:49:32;;;;;;;25.33;12.47;;;9.00;59.50;;;;;;5068841;28;20202;-73
2021/10/11 06:51:59;;;;;;;24.97;12.60;;;9.00;59.60;;;;;;5065687;28;20197;-73
2021/10/11 06:54:26;;;;;;;22.37;11.73;;;8.70;59.70;;;;;;5063057;28;20255;-71
2021/10/11 06:56:53;;;;;;;17.37;11.23;;;9.40;59.20;;;;;;5056969;28;20248;-72
2021/10/11 06:59:20;;;;;;;19.43;12.50;;;9.60;59.10;;;;;;5057563;28;20216;-72
2021/10/11 07:01:47;;;;;;;20.67;11.13;;;9.70;59.00;;;;;;5056466;28;20230;-68
2021/10/11 07:04:15;;;;;;;20.43;12.13;;;9.80;58.80;;;;;;5055593;28;20216;-70
2021/10/11 07:06:42;;;;;;;20.53;12.10;;;10.30;58.70;;;;;;5054364;28;20206;-69
2021/10/11 07:09:09;;;;;;;25.13;11.73;;;10.80;56.90;;;;;;5058967;28;20210;-69
2021/10/11 07:11:36;;;;;;;20.00;11.57;;;11.10;55.90;;;;;;5060245;28;20296;-69
2021/10/11 07:14:03;;;;;;;22.53;12.20;;;11.10;55.30;;;;;;5058239;28;20197;-68
2021/10/11 07:16:31;;;;;;;20.40;11.53;;;11.20;55.20;;;;;;5059453;28;20631;-70
2021/10/11 07:18:58;;;;;;;18.90;12.20;;;11.20;55.10;;;;;;5064493;28;20241;-71
2021/10/11 07:21:26;;;;;;;19.47;11.53;;;11.20;55.10;;;;;;5054885;28;20232;-70
2021/10/11 07:23:53;;;;;;;23.77;12.57;;;11.30;55.10;;;;;;5059893;28;20236;-71
2021/10/11 07:26:20;;;;;;;22.80;12.13;;;11.30;55.00;;;;;;5057721;28;20263;-70
2021/10/11 07:28:47;;;;;;;23.33;12.47;;;11.50;55.00;;;;;;5061480;28;20609;-69
2021/10/11 07:31:13;;;;;;;25.47;11.73;;;11.60;54.70;;;;;;5069340;28;20211;-74
2021/10/11 07:33:40;;;;;;;26.63;12.33;;;11.70;54.50;;;;;;5059847;28;20204;-71
2021/10/11 07:36:07;;;;;;;24.30;12.00;;;11.80;54.30;;;;;;5056697;28;20228;-69
2021/10/11 07:38:35;;;;;;;25.80;12.80;;;12.00;53.90;;;;;;5063860;28;20219;-69
2021/10/11 07:41:02;;;;;;;29.07;13.67;;;12.00;53.50;;;;;;5056071;28;20260;-68
2021/10/11 07:43:29;;;;;;;19.97;11.90;;;12.20;53.50;;;;;;5052831;28;20224;-69
2021/10/11 07:46:02;;;;;;;25.23;12.30;;;12.30;53.10;;;;;;5059382;28;20201;-70
2021/10/11 07:48:29;;;;;;;22.73;12.10;;;12.40;53.10;;;;;;5056068;28;20305;-70
2021/10/11 07:50:56;;;;;;;27.63;12.67;;;12.60;53.00;;;;;;5059655;28;20233;-72
2021/10/11 07:53:23;;;;;;;21.10;12.63;;;12.80;53.10;;;;;;5065173;28;20204;-70
2021/10/11 07:55:51;;;;;;;26.17;12.17;;;13.10;52.60;;;;;;5058251;28;20214;-71
2021/10/11 07:58:19;;;;;;;23.73;12.67;;;13.30;52.20;;;;;;5065983;28;20228;-71
2021/10/11 08:00:46;;;;;;;21.07;11.73;;;13.50;51.60;;;;;;5062298;28;20223;-70
2021/10/11 08:03:13;;;;;;;24.30;12.13;;;13.60;51.00;;;;;;5072273;28;20227;-70
2021/10/11 08:05:40;;;;;;;21.57;12.17;;;13.80;50.70;;;;;;5067529;28;20209;-70
2021/10/11 08:08:07;;;;;;;23.33;12.27;;;14.00;50.20;;;;;;5066744;28;20280;-71
2021/10/11 08:10:34;;;;;;;17.07;11.33;;;14.20;49.70;;;;;;5065951;28;20737;-71
2021/10/11 08:13:03;;;;;;;22.10;11.90;;;14.30;49.00;;;;;;5065231;28;20251;-71
2021/10/11 08:15:30;;;;;;;20.30;11.30;;;14.40;48.90;;;;;;5067518;28;20206;-69
2021/10/11 08:17:57;;;;;;;21.13;12.07;;;14.60;48.60;;;;;;5057918;28;20210;-71
2021/10/11 08:20:25;;;;;;;24.60;10.97;;;14.80;48.30;;;;;;5063846;28;20300;-71
2021/10/11 08:22:52;;;;;;;18.83;10.50;;;14.90;48.10;;;;;;5065479;28;20217;-70
2021/10/11 08:25:19;;;;;;;24.10;10.83;;;15.20;47.90;;;;;;5071262;28;20589;-70
2021/10/11 08:27:46;;;;;;;16.20;10.47;;;15.40;47.10;;;;;;5056716;28;20328;-70
2021/10/11 08:30:16;;;;;;;20.33;10.93;;;15.40;46.50;;;;;;5064598;28;20260;-71
2021/10/11 08:32:43;;;;;;;19.80;10.73;;;15.40;46.30;;;;;;5061701;28;20212;-72
2021/10/11 08:35:10;;;;;;;22.80;10.90;;;15.50;45.90;;;;;;5066484;28;20213;-75
2021/10/11 08:37:37;;;;;;;18.23;10.27;;;15.50;45.70;;;;;;5059799;28;20231;-71
2021/10/11 08:40:04;;;;;;;19.47;11.17;;;15.60;45.50;;;;;;5066378;28;20678;-74
2021/10/11 08:42:31;;;;;;;17.70;11.33;;;15.80;45.50;;;;;;5073311;28;20311;-74
2021/10/11 08:44:58;;;;;;;16.53;10.43;;;16.00;45.20;;;;;;5061398;28;20216;-73
2021/10/11 08:47:27;;;;;;;15.73;10.00;;;16.40;45.10;;;;;;5056939;28;20210;-74
2021/10/11 08:49:53;;;;;;;22.97;11.60;;;16.80;45.00;;;;;;5071430;28;20205;-74
2021/10/11 08:52:24;;;;;;;22.67;11.30;;;17.30;44.90;;;;;;5072662;28;20213;-75
2021/10/11 08:54:52;;;;;;;22.92;12.40;;;18.40;43.50;;;;;;5066147;28;20197;-74
2021/10/11 08:57:23;;;;;;;23.23;10.88;;;19.70;41.10;;;;;;5059630;28;20209;-73
2021/10/11 08:59:51;;;;;;;20.42;11.70;;;21.20;40.20;;;;;;5052348;28;20568;-74
2021/10/11 09:02:20;;;;;;;15.77;11.32;;;22.70;38.30;;;;;;5055947;28;20312;-72
2021/10/11 09:04:51;;;;;;;16.73;11.48;;;24.40;38.20;;;;;;5068335;28;20209;-73
2021/10/11 09:07:23;;;;;;;19.27;11.25;;;26.60;34.80;;;;;;5058377;28;20237;-75
2021/10/11 09:09:51;;;;;;;17.33;12.02;;;28.70;31.70;;;;;;5071243;28;20673;-73
2021/10/11 09:12:18;;;;;;;17.15;11.00;;;30.60;30.10;;;;;;5067920;28;20563;-72
2021/10/11 09:14:47;;;;;;;20.85;11.13;;;32.60;28.40;;;;;;5058681;28;20212;-74
2021/10/11 09:17:28;;;;;;;17.75;11.00;;;34.40;27.00;;;;;;5052042;28;20663;-73
2021/10/11 09:19:59;;;;;;;17.30;11.20;;;36.20;25.80;;;;;;5056348;28;20262;-74
2021/10/11 09:22:34;;;;;;;14.90;10.07;;;37.90;24.40;;;;;;5056871;28;20213;-74
2021/10/11 09:25:01;;;;;;;16.98;9.65;;;39.20;23.30;;;;;;5058365;28;20215;-75
2021/10/11 09:27:29;;;;;;;18.17;11.02;;;40.00;22.40;;;;;;5065867;28;20320;-73
2021/10/11 09:29:56;;;;;;;16.25;10.15;;;40.20;22.10;;;;;;5061647;28;20292;-74
2021/10/11 09:32:31;;;;;;;15.23;9.40;;;40.50;22.10;;;;;;5056294;28;20587;-74
2021/10/11 09:35:11;;;;;;;15.13;8.80;;;41.10;21.50;;;;;;5058114;28;20216;-74
2021/10/11 09:37:38;;;;;;;21.15;10.50;;;42.00;21.00;;;;;;5056813;28;20240;-73
2021/10/11 09:40:06;;;;;;;19.08;10.48;;;43.10;20.60;;;;;;5061093;28;20201;-73
2021/10/11 09:42:34;;;;;;;14.57;8.98;;;44.00;20.40;;;;;;5055828;28;20666;-73
2021/10/11 09:45:02;;;;;;;14.45;9.77;;;44.90;20.00;;;;;;5057188;28;20568;-73
2021/10/11 09:47:32;;;;;;;15.88;9.40;;;45.70;19.40;;;;;;5057781;28;20572;-73
2021/10/11 09:50:01;;;;;;;14.82;8.90;;;46.20;19.00;;;;;;5058961;28;20573;-73
2021/10/11 09:52:30;;;;;;;17.40;8.32;;;46.60;18.40;;;;;;5064674;28;20201;-74
2021/10/11 09:54:57;;;;;;;13.00;7.85;;;46.80;18.40;;;;;;5059270;28;20609;-73
2021/10/11 09:57:24;;;;;;;11.40;8.00;;;46.80;18.10;;;;;;5059326;28;20213;-74
2021/10/11 09:59:52;;;;;;;14.18;8.40;;;46.50;18.00;;;;;;5056692;28;20216;-75
2021/10/11 10:02:25;;;;;;;15.32;7.85;;;46.50;18.00;;;;;;5058393;28;20315;-74
2021/10/11 10:04:57;;;;;;;10.60;6.80;;;46.60;18.50;;;;;;5059532;28;20573;-73
2021/10/11 10:07:27;;;;;;;11.45;7.57;;;46.60;17.70;;;;;;5058980;28;20273;-72
2021/10/11 10:09:57;;;;;;;12.20;7.78;;;46.90;17.60;;;;;;5061346;28;20196;-73
2021/10/11 10:12:24;;;;;;;19.95;7.22;;;46.80;17.40;;;;;;5066401;28;20219;-73
2021/10/11 10:14:59;;;;;;;16.08;7.68;;;47.10;17.30;;;;;;5076125;28;20227;-74
2021/10/11 10:17:31;;;;;;;22.88;8.35;;;47.10;17.10;;;;;;5068528;28;20554;-74
2021/10/11 10:20:11;;;;;;;12.38;8.23;;;47.20;17.70;;;;;;5071902;28;20208;-74
2021/10/11 10:22:51;;;;;;;14.60;8.13;;;48.00;17.20;;;;;;5066278;28;20228;-75
2021/10/11 10:25:22;;;;;;;16.60;7.82;;;48.70;16.90;;;;;;5071028;28;20212;-74
2021/10/11 10:27:51;;;;;;;18.67;9.13;;;48.80;16.60;;;;;;5068896;28;20302;-73
2021/10/11 10:30:20;;;;;;;17.95;9.02;;;48.40;16.70;;;;;;5066593;28;20215;-74
2021/10/11 10:32:55;;;;;;;18.20;8.48;;;48.30;16.60;;;;;;5066838;28;20300;-76
2021/10/11 10:35:23;;;;;;;20.10;8.90;;;48.50;16.60;;;;;;5073743;28;20210;-74
2021/10/11 10:37:50;;;;;;;16.05;8.05;;;49.20;16.60;;;;;;5066770;28;20300;-76
2021/10/11 10:40:20;;;;;;;17.23;8.52;;;49.70;16.30;;;;;;5062465;28;20211;-74
2021/10/11 10:42:48;;;;;;;21.00;8.18;;;49.30;16.20;;;;;;5062151;28;20221;-75
2021/10/11 10:45:18;;;;;;;13.82;8.50;;;48.90;16.30;;;;;;5055762;28;20292;-75
2021/10/11 10:47:45;;;;;;;17.50;8.50;;;48.40;16.50;;;;;;5062208;28;20250;-76
2021/10/11 10:50:14;;;;;;;13.65;8.13;;;48.20;16.50;;;;;;5057723;28;20687;-75
2021/10/11 10:52:41;;;;;;;14.10;7.30;;;48.20;16.50;;;;;;5058793;28;20210;-75
2021/10/11 10:55:08;;;;;;;14.45;6.90;;;48.50;16.10;;;;;;5057586;28;20293;-74
2021/10/11 10:57:37;;;;;;;14.85;7.05;;;48.60;16.10;;;;;;5059064;28;20216;-74
2021/10/11 11:00:13;;;;;;;16.33;7.65;;;48.20;16.00;;;;;;5060887;28;20296;-74
2021/10/11 11:02:45;;;;;;;19.17;7.30;;;47.70;15.90;;;;;;5056596;28;20217;-75
2021/10/11 11:05:12;;;;;;;20.20;7.82;;;47.00;16.20;;;;;;5061139;28;20289;-74
2021/10/11 11:07:41;;;;;;;15.05;7.30;;;45.90;16.50;;;;;;5059560;28;20213;-75
2021/10/11 11:10:12;;;;;;;22.67;8.52;;;46.20;16.80;;;;;;5063541;28;20204;-75
2021/10/11 11:12:44;;;;;;;15.73;7.97;;;46.80;16.40;;;;;;5058621;28;20292;-74
2021/10/11 11:15:23;;;;;;;13.30;7.25;;;46.10;16.40;;;;;;5061359;28;20725;-74
2021/10/11 11:17:50;;;;;;;20.00;11.45;;;45.80;16.60;;;;;;5056632;28;20211;-75
2021/10/11 11:20:20;;;;;;;16.10;8.07;;;45.30;16.80;;;;;;5059280;28;20205;-73
2021/10/11 11:22:48;;;;;;;15.02;7.93;;;45.00;17.20;;;;;;5061005;28;20248;-74
2021/10/11 11:25:15;;;;;;;21.67;8.40;;;45.30;17.00;;;;;;5058984;28;20213;-74
2021/10/11 11:27:45;;;;;;;15.75;8.07;;;45.40;16.80;;;;;;5062113;28;20327;-74
2021/10/11 11:30:14;;;;;;;17.75;7.55;;;45.10;17.10;;;;;;5069041;28;20204;-73
2021/10/11 11:32:48;;;;;;;15.07;7.90;;;45.50;17.10;;;;;;5071863;28;20723;-74
2021/10/11 11:35:20;;;;;;;14.82;8.60;;;46.30;17.10;;;;;;5070006;28;20214;-74
2021/10/11 11:37:48;;;;;;;12.30;7.22;;;46.70;16.90;;;;;;5069344;28;20205;-76
2021/10/11 11:40:17;;;;;;;13.43;7.82;;;47.00;16.70;;;;;;5070305;28;20218;-75
2021/10/11 11:42:46;;;;;;;16.23;8.00;;;47.70;16.60;;;;;;5055994;28;20225;-74
2021/10/11 11:45:13;;;;;;;17.38;8.38;;;48.40;16.40;;;;;;5067282;28;20203;-73
2021/10/11 11:47:40;;;;;;;13.40;7.80;;;48.90;16.30;;;;;;5059476;28;20236;-74
2021/10/11 11:50:18;;;;;;;12.27;7.75;;;49.20;16.10;;;;;;5062166;28;20576;-74
2021/10/11 11:52:48;;;;;;;14.20;7.68;;;49.40;15.90;;;;;;5059187;28;20282;-74
2021/10/11 11:55:15;;;;;;;13.07;8.25;;;48.30;15.90;;;;;;5060478;28;20224;-74
2021/10/11 11:57:44;;;;;;;13.73;9.57;;;46.40;16.40;;;;;;5060210;28;20300;-74
2021/10/11 12:00:14;;;;;;;17.25;9.25;;;44.60;16.70;;;;;;5060935;28;20201;-73
2021/10/11 12:02:45;;;;;;;13.70;8.27;;;42.50;17.30;;;;;;5067858;28;20726;-72
2021/10/11 12:05:12;;;;;;;13.40;7.95;;;40.10;18.00;;;;;;5067606;28;20285;-70
2021/10/11 12:07:43;;;;;;;15.85;8.50;;;37.60;18.90;;;;;;5074106;28;20213;-71
2021/10/11 12:10:13;;;;;;;17.30;8.73;;;35.40;20.00;;;;;;5060391;28;20572;-70
2021/10/11 12:12:39;;;;;;;15.50;7.97;;;33.90;20.80;;;;;;5071572;28;20617;-69
2021/10/11 12:15:17;;;;;;;22.08;9.25;;;33.30;21.20;;;;;;5070398;28;20231;-70
2021/10/11 12:17:45;;;;;;;12.25;7.47;;;32.60;21.30;;;;;;5052307;28;20667;-70
2021/10/11 12:20:12;;;;;;;16.33;8.02;;;31.40;21.80;;;;;;5067660;28;20228;-69
2021/10/11 12:22:39;;;;;;;11.00;7.40;;;30.30;22.50;;;;;;5067470;28;20231;-70
2021/10/11 12:25:09;;;;;;;17.05;8.27;;;29.10;23.20;;;;;;5068784;28;20205;-70
2021/10/11 12:27:36;;;;;;;20.08;8.30;;;27.90;23.80;;;;;;5069740;28;20264;-70
2021/10/11 12:30:08;;;;;;;20.27;8.63;;;26.70;24.60;;;;;;5072155;28;20201;-71
2021/10/11 12:32:36;;;;;;;12.20;8.63;;;25.60;25.80;;;;;;5056976;28;20229;-71
2021/10/11 12:35:08;;;;;;;11.88;8.70;;;24.50;26.60;;;;;;5053228;28;20201;-71
2021/10/11 12:37:42;;;;;;;14.20;8.07;;;23.70;27.20;;;;;;5071029;28;20282;-71
2021/10/11 12:40:11;;;;;;;18.20;9.27;;;22.90;27.90;;;;;;5059003;28;20209;-73
2021/10/11 12:42:46;;;;;;;15.85;8.85;;;22.30;28.50;;;;;;5067128;28;20251;-73